Time;durP1;ratioP1;P1;durP2;ratioP2;P2;SDS_P1;SDS_P2;PMS_P1;PMS_P2;Temp;Humidity;BMP_temperature;BMP_pressure;BME280_temperature;BME280_humidity;BME280_pressure;Samples;Min_cycle;Max_cycle;Signal;HPM_P1;HPM_P2
2024/02/04 00:02:26;;;;;;;6.13;0.70;;;9.00;99.90;;;;;;5061950;28;20815;-68
2024/02/04 00:04:54;;;;;;;6.60;1.00;;;9.00;99.90;;;;;;5055341;28;20475;-69
2024/02/04 00:07:22;;;;;;;7.00;1.00;;;9.00;99.90;;;;;;5055988;28;20479;-69
2024/02/04 00:09:50;;;;;;;6.00;0.70;;;8.90;99.90;;;;;;5057757;28;20471;-70
2024/02/04 00:12:18;;;;;;;6.03;0.73;;;9.00;99.90;;;;;;5062038;28;20538;-70
2024/02/04 00:14:46;;;;;;;6.30;1.10;;;8.90;99.90;;;;;;5062013;28;21014;-70
2024/02/04 00:17:16;;;;;;;6.10;0.50;;;8.90;99.90;;;;;;5062794;28;20473;-70
2024/02/04 00:19:44;;;;;;;6.40;0.90;;;8.90;99.90;;;;;;5062236;28;21006;-69
2024/02/04 00:22:12;;;;;;;6.20;0.80;;;8.80;99.90;;;;;;5058260;28;20448;-70
2024/02/04 00:24:40;;;;;;;5.73;0.50;;;8.70;99.90;;;;;;5054043;28;20457;-68
2024/02/04 00:27:08;;;;;;;5.90;0.70;;;8.70;99.90;;;;;;5061314;28;20596;-70
2024/02/04 00:29:36;;;;;;;6.30;0.70;;;8.60;99.90;;;;;;5061483;28;20467;-70
2024/02/04 00:32:04;;;;;;;6.40;1.00;;;8.50;99.90;;;;;;5060844;28;20447;-68
2024/02/04 00:34:34;;;;;;;6.40;1.00;;;8.50;99.90;;;;;;5061371;28;20502;-71
2024/02/04 00:37:02;;;;;;;5.80;0.60;;;8.40;99.90;;;;;;5061791;28;20445;-71
2024/02/04 00:39:30;;;;;;;5.90;0.50;;;8.40;99.90;;;;;;5059186;28;20951;-69
2024/02/04 00:42:01;;;;;;;6.90;0.90;;;8.50;99.90;;;;;;5060737;28;20444;-69
2024/02/04 00:44:29;;;;;;;6.20;1.17;;;8.50;99.90;;;;;;5061366;28;20894;-70
2024/02/04 00:46:57;;;;;;;6.17;0.57;;;8.50;99.90;;;;;;5061385;28;20590;-71
2024/02/04 00:49:25;;;;;;;6.57;0.47;;;8.50;99.90;;;;;;5061196;28;20454;-69
2024/02/04 00:51:55;;;;;;;6.07;0.60;;;8.50;99.90;;;;;;5060849;28;20435;-71
2024/02/04 00:54:23;;;;;;;6.10;0.50;;;8.50;99.90;;;;;;5060293;28;20440;-72
2024/02/04 00:56:51;;;;;;;5.70;0.40;;;8.50;99.90;;;;;;5061239;28;20427;-69
2024/02/04 00:59:19;;;;;;;5.83;0.50;;;8.40;99.90;;;;;;5054039;28;21016;-70
2024/02/04 01:01:46;;;;;;;5.77;0.40;;;8.50;99.90;;;;;;5060270;28;20449;-71
2024/02/04 01:04:14;;;;;;;5.80;0.40;;;8.50;99.90;;;;;;5061488;28;20893;-71
2024/02/04 01:06:45;;;;;;;5.70;0.40;;;8.50;99.90;;;;;;5060691;28;20474;-69
2024/02/04 01:09:28;;;;;;;5.80;0.50;;;8.60;99.90;;;;;;5061127;28;20447;-69
2024/02/04 01:11:57;;;;;;;6.00;0.60;;;8.60;99.90;;;;;;5060367;28;20458;-70
2024/02/04 01:14:25;;;;;;;6.20;0.40;;;8.50;99.90;;;;;;5060859;28;20483;-70
2024/02/04 01:16:53;;;;;;;6.10;0.47;;;8.50;99.90;;;;;;5060085;28;20441;-70
2024/02/04 01:19:21;;;;;;;5.70;0.40;;;8.50;99.90;;;;;;5061034;28;20458;-71
2024/02/04 01:21:52;;;;;;;6.07;0.47;;;8.50;99.90;;;;;;5060049;28;20447;-69
2024/02/04 01:24:20;;;;;;;6.07;0.53;;;8.40;99.90;;;;;;5061029;28;20496;-69
2024/02/04 01:26:51;;;;;;;5.90;0.83;;;8.40;99.90;;;;;;5060201;28;20450;-71
2024/02/04 01:29:19;;;;;;;6.07;0.60;;;8.30;99.90;;;;;;5060970;28;20447;-69
2024/02/04 01:31:47;;;;;;;6.00;0.50;;;8.20;99.90;;;;;;5059433;28;20492;-71
2024/02/04 01:34:15;;;;;;;5.93;0.43;;;8.10;99.90;;;;;;5058745;28;20866;-68
2024/02/04 01:36:43;;;;;;;5.90;0.40;;;8.20;99.90;;;;;;5056839;28;20550;-68
2024/02/04 01:39:11;;;;;;;5.90;0.70;;;8.20;99.90;;;;;;5058288;28;20520;-69
2024/02/04 01:41:39;;;;;;;5.77;0.50;;;8.30;99.90;;;;;;5059231;28;20498;-68
2024/02/04 01:44:08;;;;;;;5.90;0.50;;;8.40;99.90;;;;;;5060460;28;20490;-69
2024/02/04 01:46:36;;;;;;;5.60;0.37;;;8.40;99.90;;;;;;5055229;28;20478;-70
2024/02/04 01:49:05;;;;;;;5.73;0.43;;;8.40;99.90;;;;;;5060096;28;20491;-70
2024/02/04 01:51:33;;;;;;;5.80;0.50;;;8.50;99.90;;;;;;5059684;28;20532;-68
2024/02/04 01:54:01;;;;;;;5.80;0.40;;;8.50;99.90;;;;;;5059745;28;20828;-68
2024/02/04 01:56:30;;;;;;;6.53;0.60;;;8.50;99.90;;;;;;5060854;28;20452;-71
2024/02/04 01:59:00;;;;;;;6.20;0.43;;;8.50;99.90;;;;;;5060120;28;20449;-69
2024/02/04 02:01:29;;;;;;;6.00;0.50;;;8.50;99.90;;;;;;5059067;28;20521;-68
2024/02/04 02:03:57;;;;;;;5.70;0.40;;;8.50;99.90;;;;;;5058656;28;20451;-69
2024/02/04 02:06:26;;;;;;;5.83;0.47;;;8.40;99.90;;;;;;5060465;28;20901;-69
2024/02/04 02:08:56;;;;;;;6.00;0.60;;;8.50;99.90;;;;;;5064008;28;20514;-69
2024/02/04 02:11:32;;;;;;;5.80;0.40;;;8.50;99.90;;;;;;5063318;28;20469;-70
2024/02/04 02:14:04;;;;;;;5.70;0.40;;;8.50;99.90;;;;;;5059163;28;20533;-71
2024/02/04 02:16:34;;;;;;;5.80;0.50;;;8.50;99.90;;;;;;5066145;28;21253;-70
2024/02/04 02:19:27;;;;;;;6.40;0.70;;;8.50;99.90;;;;;;5067837;28;20440;-70
2024/02/04 02:22:05;;;;;;;6.67;0.67;;;8.50;99.90;;;;;;5069316;28;20459;-69
2024/02/04 02:24:36;;;;;;;5.90;0.40;;;8.50;99.90;;;;;;5070745;28;20560;-69
2024/02/04 02:27:09;;;;;;;5.70;0.47;;;8.50;99.90;;;;;;5073163;28;20450;-71
2024/02/04 02:29:37;;;;;;;5.73;0.40;;;8.60;99.90;;;;;;5074447;28;20464;-71
2024/02/04 02:32:06;;;;;;;5.73;0.50;;;8.60;99.90;;;;;;5075465;28;20493;-72
2024/02/04 02:34:36;;;;;;;6.37;0.40;;;8.40;99.90;;;;;;5068511;28;20492;-71
2024/02/04 02:37:22;;;;;;;5.77;0.50;;;8.40;99.90;;;;;;5068140;28;20480;-69
2024/02/04 02:39:59;;;;;;;6.10;0.60;;;8.40;99.90;;;;;;5067466;28;20720;-70
2024/02/04 02:42:28;;;;;;;5.80;0.50;;;8.50;99.90;;;;;;5067009;28;20453;-69
2024/02/04 02:44:57;;;;;;;5.80;0.40;;;8.50;99.90;;;;;;5067410;28;20456;-69
2024/02/04 02:47:27;;;;;;;5.80;0.40;;;8.50;99.90;;;;;;5067437;28;20486;-68
2024/02/04 02:49:56;;;;;;;5.60;0.30;;;8.50;99.90;;;;;;5067631;28;20457;-70
2024/02/04 02:52:24;;;;;;;6.00;0.50;;;8.40;99.90;;;;;;5066097;28;20885;-70
2024/02/04 02:54:53;;;;;;;5.80;0.50;;;8.50;99.90;;;;;;5067018;28;20446;-69
2024/02/04 02:57:21;;;;;;;5.80;0.40;;;8.50;99.90;;;;;;5066437;28;20836;-70
2024/02/04 02:59:49;;;;;;;5.77;0.47;;;8.50;99.90;;;;;;5067491;28;20463;-70
2024/02/04 03:02:17;;;;;;;6.37;0.90;;;8.50;99.90;;;;;;5066513;28;20449;-70
2024/02/04 03:04:46;;;;;;;5.70;0.50;;;8.50;99.90;;;;;;5067066;28;20452;-69
2024/02/04 03:07:14;;;;;;;7.23;0.67;;;8.50;99.90;;;;;;5067061;28;20454;-69
2024/02/04 03:09:43;;;;;;;5.77;0.60;;;8.40;99.90;;;;;;5067092;28;20595;-69
2024/02/04 03:12:12;;;;;;;5.63;0.40;;;8.50;99.90;;;;;;5066012;28;20456;-69
2024/02/04 03:14:40;;;;;;;5.80;0.50;;;8.40;99.90;;;;;;5067000;28;20436;-69
2024/02/04 03:17:11;;;;;;;6.40;0.50;;;8.40;99.90;;;;;;5065793;28;20544;-71
2024/02/04 03:19:39;;;;;;;5.70;0.50;;;8.40;99.90;;;;;;5067078;28;20465;-69
2024/02/04 03:22:07;;;;;;;5.70;0.40;;;8.40;99.90;;;;;;5066388;28;21249;-69
2024/02/04 03:24:35;;;;;;;5.63;0.40;;;8.40;99.90;;;;;;5066273;28;20774;-69
2024/02/04 03:27:03;;;;;;;6.20;0.50;;;8.40;99.90;;;;;;5067174;28;20454;-69
2024/02/04 03:29:32;;;;;;;6.10;0.50;;;8.50;99.90;;;;;;5065763;28;21018;-68
2024/02/04 03:32:00;;;;;;;6.03;0.43;;;8.40;99.90;;;;;;5066996;28;20448;-71
2024/02/04 03:34:28;;;;;;;5.83;0.47;;;8.30;99.90;;;;;;5066721;28;20480;-70
2024/02/04 03:36:56;;;;;;;5.80;0.47;;;8.30;99.90;;;;;;5066645;28;20833;-69
2024/02/04 03:39:24;;;;;;;6.00;0.80;;;8.20;99.90;;;;;;5066464;28;20947;-71
2024/02/04 03:41:52;;;;;;;5.90;0.70;;;8.40;99.90;;;;;;5065947;28;20915;-70
2024/02/04 03:44:20;;;;;;;6.50;0.53;;;8.50;99.90;;;;;;5066277;28;20457;-70
2024/02/04 03:46:50;;;;;;;5.70;0.47;;;8.40;99.90;;;;;;5065740;28;22261;-70
2024/02/04 03:49:18;;;;;;;5.70;0.40;;;8.30;99.90;;;;;;5066391;28;20468;-69
2024/02/04 03:51:47;;;;;;;6.20;0.53;;;8.30;99.90;;;;;;5065430;28;20529;-70
2024/02/04 03:54:15;;;;;;;5.70;0.50;;;8.30;99.90;;;;;;5065937;28;21088;-70
2024/02/04 03:56:43;;;;;;;5.70;0.43;;;8.30;99.90;;;;;;5065987;28;20459;-68
2024/02/04 03:59:11;;;;;;;6.00;0.50;;;8.20;99.90;;;;;;5066037;28;20495;-69
2024/02/04 04:01:39;;;;;;;5.73;0.40;;;8.20;99.90;;;;;;5065313;28;20475;-68
2024/02/04 04:04:09;;;;;;;5.90;0.40;;;8.10;99.90;;;;;;5064811;28;20450;-68
2024/02/04 04:06:37;;;;;;;6.00;0.60;;;8.30;99.90;;;;;;5067299;28;20449;-70
2024/02/04 04:09:07;;;;;;;5.83;0.60;;;8.30;99.90;;;;;;5066204;28;20551;-69
2024/02/04 04:11:35;;;;;;;5.70;0.53;;;8.40;99.90;;;;;;5064435;28;20485;-70
2024/02/04 04:14:03;;;;;;;5.90;0.40;;;8.40;99.90;;;;;;5058575;28;20500;-71
2024/02/04 04:16:31;;;;;;;5.60;0.37;;;8.40;99.90;;;;;;5065369;28;20457;-70
2024/02/04 04:18:59;;;;;;;5.60;0.40;;;8.40;99.90;;;;;;5065219;28;20499;-71
2024/02/04 04:21:28;;;;;;;5.80;0.50;;;8.30;99.90;;;;;;5064774;28;20483;-70
2024/02/04 04:23:56;;;;;;;5.60;0.33;;;8.30;99.90;;;;;;5065323;28;20457;-69
2024/02/04 04:26:24;;;;;;;5.70;0.50;;;8.40;99.90;;;;;;5065647;28;20946;-70
2024/02/04 04:28:52;;;;;;;6.00;0.50;;;8.30;99.90;;;;;;5065240;28;20492;-71
2024/02/04 04:31:20;;;;;;;5.90;0.60;;;8.30;99.90;;;;;;5054414;28;20470;-69
2024/02/04 04:33:48;;;;;;;5.90;0.50;;;8.30;99.90;;;;;;5065091;28;20481;-69
2024/02/04 04:36:16;;;;;;;6.00;0.60;;;8.30;99.90;;;;;;5063950;28;20502;-68
2024/02/04 04:38:49;;;;;;;5.70;0.40;;;8.30;99.90;;;;;;5065699;28;20480;-69
2024/02/04 04:41:17;;;;;;;5.70;0.50;;;8.20;99.90;;;;;;5065519;28;20485;-72
2024/02/04 04:43:45;;;;;;;5.70;0.40;;;8.40;99.90;;;;;;5065659;28;20465;-69
2024/02/04 04:46:13;;;;;;;5.90;0.50;;;8.40;99.90;;;;;;5062858;28;20567;-69
2024/02/04 04:48:41;;;;;;;6.10;0.40;;;8.50;99.90;;;;;;5060898;28;20509;-69
2024/02/04 04:51:09;;;;;;;5.83;0.40;;;8.40;99.90;;;;;;5065715;28;20994;-69
2024/02/04 04:53:38;;;;;;;6.10;0.80;;;8.50;99.90;;;;;;5065436;28;20473;-69
2024/02/04 04:56:07;;;;;;;5.77;0.50;;;8.40;99.90;;;;;;5066275;28;20439;-70
2024/02/04 04:58:36;;;;;;;5.80;0.60;;;8.40;99.90;;;;;;5066251;28;20963;-69
2024/02/04 05:01:06;;;;;;;5.80;0.47;;;8.40;99.90;;;;;;5065502;28;20469;-71
2024/02/04 05:03:34;;;;;;;5.70;0.53;;;8.40;99.90;;;;;;5065687;28;20470;-68
2024/02/04 05:06:02;;;;;;;5.63;0.40;;;8.50;99.90;;;;;;5065409;28;20466;-71
2024/02/04 05:08:30;;;;;;;5.70;0.40;;;8.40;99.90;;;;;;5065144;28;20496;-69
2024/02/04 05:10:57;;;;;;;6.37;0.67;;;8.30;99.90;;;;;;5056227;28;20492;-70
2024/02/04 05:13:27;;;;;;;6.10;0.50;;;8.40;99.90;;;;;;5063951;28;20485;-70
2024/02/04 05:15:55;;;;;;;6.37;0.50;;;8.40;99.90;;;;;;5064841;28;21072;-69
2024/02/04 05:18:26;;;;;;;6.57;0.50;;;8.40;99.90;;;;;;5064859;28;20476;-70
2024/02/04 05:20:54;;;;;;;5.90;0.50;;;8.50;99.90;;;;;;5064305;28;20508;-70
2024/02/04 05:23:23;;;;;;;5.70;0.30;;;8.50;99.90;;;;;;5064695;28;20446;-70
2024/02/04 05:25:53;;;;;;;5.70;0.40;;;8.50;99.90;;;;;;5064389;28;20437;-69
2024/02/04 05:28:21;;;;;;;5.80;0.43;;;8.50;99.90;;;;;;5064969;28;20561;-70
2024/02/04 05:30:51;;;;;;;5.70;0.40;;;8.50;99.90;;;;;;5063313;28;20512;-69
2024/02/04 05:33:19;;;;;;;6.40;0.50;;;8.50;99.90;;;;;;5063266;28;21323;-71
2024/02/04 05:35:47;;;;;;;6.07;0.50;;;8.50;99.90;;;;;;5066003;28;20544;-71
2024/02/04 05:38:16;;;;;;;6.93;0.40;;;8.60;99.90;;;;;;5065275;28;21146;-70
2024/02/04 05:40:44;;;;;;;5.90;0.47;;;8.50;99.90;;;;;;5062766;28;20463;-69
2024/02/04 05:43:13;;;;;;;5.90;0.50;;;8.40;99.90;;;;;;5063999;28;20473;-70
2024/02/04 05:45:41;;;;;;;5.80;0.50;;;8.40;99.90;;;;;;5065750;28;20527;-68
2024/02/04 05:48:11;;;;;;;5.80;0.50;;;8.40;99.90;;;;;;5064545;28;20469;-68
2024/02/04 05:50:39;;;;;;;6.20;0.60;;;8.50;99.90;;;;;;5060787;28;20608;-69
2024/02/04 05:53:07;;;;;;;5.87;0.60;;;8.50;99.90;;;;;;5064387;28;20572;-69
2024/02/04 05:55:35;;;;;;;6.73;0.63;;;8.50;99.90;;;;;;5063807;28;20469;-70
2024/02/04 05:58:03;;;;;;;5.90;0.57;;;8.50;99.90;;;;;;5064724;28;20989;-70
2024/02/04 06:00:31;;;;;;;5.70;0.30;;;8.50;99.90;;;;;;5064256;28;20470;-69
2024/02/04 06:02:59;;;;;;;5.90;0.50;;;8.50;99.90;;;;;;5061116;28;20511;-70
2024/02/04 06:05:28;;;;;;;5.80;0.57;;;8.50;99.90;;;;;;5064605;28;20550;-70
2024/02/04 06:07:56;;;;;;;5.90;0.50;;;8.50;99.90;;;;;;5063745;28;20463;-68
2024/02/04 06:10:24;;;;;;;5.90;0.40;;;8.50;99.90;;;;;;5064967;28;20489;-69
2024/02/04 06:12:52;;;;;;;6.47;1.10;;;8.50;99.90;;;;;;5064464;28;21342;-70
2024/02/04 06:15:20;;;;;;;5.87;0.43;;;8.60;99.90;;;;;;5065029;28;20453;-69
2024/02/04 06:17:48;;;;;;;6.27;0.50;;;8.40;99.90;;;;;;5065432;28;20451;-69
2024/02/04 06:20:16;;;;;;;5.90;0.40;;;8.40;99.90;;;;;;5064738;28;20962;-69
2024/02/04 06:22:46;;;;;;;5.77;0.43;;;8.40;99.90;;;;;;5058759;28;21164;-68
2024/02/04 06:25:14;;;;;;;6.00;0.50;;;8.50;99.90;;;;;;5065710;28;20483;-70
2024/02/04 06:27:42;;;;;;;5.70;0.40;;;8.40;99.90;;;;;;5065346;28;20551;-70
2024/02/04 06:30:11;;;;;;;5.70;0.40;;;8.40;99.90;;;;;;5064498;28;20513;-70
2024/02/04 06:32:39;;;;;;;5.90;0.50;;;8.50;99.90;;;;;;5064030;28;20472;-69
2024/02/04 06:35:08;;;;;;;5.70;0.50;;;8.50;99.90;;;;;;5065481;28;20468;-69
2024/02/04 06:37:36;;;;;;;5.70;0.40;;;8.40;99.90;;;;;;5060888;28;21129;-70
2024/02/04 06:40:06;;;;;;;6.23;0.87;;;8.50;99.90;;;;;;5065839;28;20902;-70
2024/02/04 06:42:35;;;;;;;6.00;0.60;;;8.50;99.90;;;;;;5066176;28;20471;-68
2024/02/04 06:45:03;;;;;;;5.70;0.40;;;8.50;99.90;;;;;;5066558;28;20475;-70
2024/02/04 06:47:30;;;;;;;5.73;0.40;;;8.50;99.90;;;;;;5065503;28;20547;-69
2024/02/04 06:49:58;;;;;;;5.63;0.40;;;8.50;99.90;;;;;;5063124;28;20483;-69
2024/02/04 06:52:26;;;;;;;5.70;0.40;;;8.40;99.90;;;;;;5061802;28;20491;-69
2024/02/04 06:54:54;;;;;;;5.63;0.40;;;8.40;99.90;;;;;;5066244;28;21003;-69
2024/02/04 06:57:24;;;;;;;6.67;0.50;;;8.40;99.90;;;;;;5070609;28;20510;-70
2024/02/04 06:59:52;;;;;;;5.67;0.43;;;8.40;99.90;;;;;;5070066;28;20469;-69
2024/02/04 07:02:19;;;;;;;6.63;0.60;;;8.30;99.90;;;;;;5069059;28;20444;-69
2024/02/04 07:04:47;;;;;;;6.20;0.40;;;8.30;99.90;;;;;;5069515;28;20490;-70
2024/02/04 07:07:20;;;;;;;6.10;0.60;;;8.30;99.90;;;;;;5066966;28;20455;-69
2024/02/04 07:09:48;;;;;;;5.70;0.43;;;8.40;99.90;;;;;;5065556;28;20479;-69
2024/02/04 07:12:16;;;;;;;6.30;0.50;;;8.40;99.90;;;;;;5068721;28;20522;-69
2024/02/04 07:14:45;;;;;;;5.87;0.60;;;8.50;99.90;;;;;;5070621;28;20990;-70
2024/02/04 07:17:13;;;;;;;6.00;0.40;;;8.40;99.90;;;;;;5070692;28;20440;-69
2024/02/04 07:19:41;;;;;;;5.90;0.60;;;8.40;99.90;;;;;;5072014;28;20548;-69
2024/02/04 07:22:09;;;;;;;6.10;0.67;;;8.40;99.90;;;;;;5068317;28;20454;-69
2024/02/04 07:24:37;;;;;;;5.70;0.50;;;8.50;99.90;;;;;;5070717;28;20458;-69
2024/02/04 07:27:05;;;;;;;5.70;0.60;;;8.50;99.90;;;;;;5069612;28;20652;-68
2024/02/04 07:29:33;;;;;;;6.70;0.80;;;8.50;99.90;;;;;;5069561;28;20467;-68
2024/02/04 07:32:02;;;;;;;5.80;0.50;;;8.60;99.90;;;;;;5068713;28;20683;-69
2024/02/04 07:34:30;;;;;;;6.00;0.60;;;8.70;99.90;;;;;;5068496;28;20476;-68
2024/02/04 07:36:58;;;;;;;5.87;0.50;;;8.80;99.90;;;;;;5068440;28;20459;-69
2024/02/04 07:39:27;;;;;;;6.50;0.60;;;8.80;99.90;;;;;;5068875;28;20504;-70
2024/02/04 07:41:56;;;;;;;5.87;0.50;;;8.80;99.90;;;;;;5066975;28;20458;-69
2024/02/04 07:44:24;;;;;;;5.87;0.50;;;8.90;99.90;;;;;;5067737;28;20448;-68
2024/02/04 07:46:52;;;;;;;6.10;0.60;;;9.00;99.90;;;;;;5068244;28;20470;-69
2024/02/04 07:49:21;;;;;;;5.80;0.50;;;9.10;99.90;;;;;;5068670;28;20454;-69
2024/02/04 07:51:50;;;;;;;6.37;0.73;;;9.20;99.90;;;;;;5067353;28;21068;-69
2024/02/04 07:54:21;;;;;;;5.90;0.57;;;9.30;99.90;;;;;;5070650;28;20576;-68
2024/02/04 07:56:48;;;;;;;6.97;1.27;;;9.40;99.90;;;;;;5072097;28;20995;-68
2024/02/04 07:59:17;;;;;;;5.80;0.43;;;9.50;99.90;;;;;;5073646;28;20467;-68
2024/02/04 08:01:49;;;;;;;6.00;0.50;;;9.70;99.90;;;;;;5071228;28;20470;-69
2024/02/04 08:04:17;;;;;;;5.80;0.50;;;9.80;99.90;;;;;;5071416;28;20471;-69
2024/02/04 08:06:48;;;;;;;5.80;0.50;;;9.90;99.90;;;;;;5072376;28;20459;-68
2024/02/04 08:09:16;;;;;;;6.43;0.60;;;10.20;99.90;;;;;;5072511;28;20975;-68
2024/02/04 08:11:44;;;;;;;5.90;0.43;;;10.20;99.90;;;;;;5068412;28;20862;-68
2024/02/04 08:14:13;;;;;;;6.30;0.50;;;10.10;99.90;;;;;;5070362;28;20549;-69
2024/02/04 08:16:42;;;;;;;5.70;0.40;;;10.00;99.90;;;;;;5070798;28;20480;-70
2024/02/04 08:19:10;;;;;;;5.63;0.50;;;9.90;99.90;;;;;;5071979;28;20485;-67
2024/02/04 08:21:38;;;;;;;6.00;0.50;;;9.90;99.90;;;;;;5072838;28;20485;-69
2024/02/04 08:24:08;;;;;;;5.77;0.50;;;10.00;99.90;;;;;;5072976;28;20473;-70
2024/02/04 08:26:36;;;;;;;5.77;0.60;;;10.00;99.90;;;;;;5071148;28;20996;-71
2024/02/04 08:29:04;;;;;;;7.10;0.83;;;10.00;99.90;;;;;;5071791;28;20585;-69
2024/02/04 08:31:33;;;;;;;6.10;0.60;;;10.00;99.90;;;;;;5068839;28;20559;-68
2024/02/04 08:34:02;;;;;;;6.43;0.60;;;10.10;99.90;;;;;;5071901;28;20457;-68
2024/02/04 08:36:30;;;;;;;5.83;0.50;;;10.10;99.90;;;;;;5071785;28;20516;-70
2024/02/04 08:38:59;;;;;;;6.00;0.60;;;10.10;99.90;;;;;;5068002;28;20442;-69
2024/02/04 08:41:28;;;;;;;7.00;0.60;;;10.10;99.90;;;;;;5061067;28;20467;-68
2024/02/04 08:43:56;;;;;;;6.03;0.60;;;10.10;99.90;;;;;;5066121;28;20445;-71
2024/02/04 08:46:25;;;;;;;5.90;0.60;;;10.10;99.90;;;;;;5065325;28;20827;-69
2024/02/04 08:48:53;;;;;;;5.80;0.40;;;10.10;99.90;;;;;;5065734;28;20450;-69
2024/02/04 08:51:21;;;;;;;5.97;0.70;;;10.10;99.90;;;;;;5064589;28;20873;-68
2024/02/04 08:53:49;;;;;;;6.50;0.60;;;10.20;99.90;;;;;;5063977;28;20435;-70
2024/02/04 08:56:17;;;;;;;6.20;0.70;;;10.20;99.90;;;;;;5063219;28;20439;-70
2024/02/04 08:58:46;;;;;;;6.10;0.90;;;10.30;99.90;;;;;;5065251;28;20475;-70
2024/02/04 09:01:14;;;;;;;6.00;0.60;;;10.30;99.90;;;;;;5064187;28;20451;-70
2024/02/04 09:03:42;;;;;;;5.90;0.50;;;10.20;99.90;;;;;;5062334;28;20457;-70
2024/02/04 09:06:10;;;;;;;6.10;0.77;;;10.30;99.90;;;;;;5064872;28;20444;-71
2024/02/04 09:08:39;;;;;;;7.27;0.80;;;10.20;99.90;;;;;;5065085;28;20443;-68
2024/02/04 09:11:06;;;;;;;7.37;0.60;;;10.30;99.90;;;;;;5064254;28;20494;-68
2024/02/04 09:13:35;;;;;;;6.83;0.60;;;10.20;99.90;;;;;;5064720;28;20443;-68
2024/02/04 09:16:05;;;;;;;7.13;0.80;;;10.20;99.90;;;;;;5062822;28;20454;-69
2024/02/04 09:18:33;;;;;;;6.90;0.60;;;10.10;99.90;;;;;;5060705;28;20536;-68
2024/02/04 09:21:02;;;;;;;5.83;0.70;;;10.30;99.90;;;;;;5064871;28;21003;-69
2024/02/04 09:23:30;;;;;;;6.10;0.77;;;10.30;99.90;;;;;;5065661;28;20453;-68
2024/02/04 09:25:58;;;;;;;6.10;0.70;;;10.20;99.90;;;;;;5066488;28;20462;-68
2024/02/04 09:28:26;;;;;;;5.90;0.60;;;10.30;99.90;;;;;;5066246;28;20478;-69
2024/02/04 09:30:54;;;;;;;5.97;0.53;;;10.30;99.90;;;;;;5065464;28;20471;-68
2024/02/04 09:33:23;;;;;;;5.80;0.50;;;10.30;99.90;;;;;;5062885;28;20780;-68
2024/02/04 09:35:51;;;;;;;6.20;0.70;;;10.30;99.90;;;;;;5065403;28;20530;-68
2024/02/04 09:38:21;;;;;;;6.50;0.83;;;10.40;99.90;;;;;;5064523;28;20474;-69
2024/02/04 09:40:50;;;;;;;6.70;0.60;;;10.50;99.90;;;;;;5063040;28;20983;-69
2024/02/04 09:43:18;;;;;;;8.10;0.80;;;10.60;99.90;;;;;;5065561;28;20435;-68
2024/02/04 09:45:49;;;;;;;5.70;0.40;;;10.80;99.90;;;;;;5065997;28;20549;-68
2024/02/04 09:48:20;;;;;;;6.00;0.60;;;10.80;99.90;;;;;;5066326;28;20501;-68
2024/02/04 09:50:51;;;;;;;6.33;0.77;;;11.10;99.90;;;;;;5065082;28;20540;-69
2024/02/04 09:53:26;;;;;;;5.60;0.30;;;11.30;99.90;;;;;;5065804;28;20486;-68
2024/02/04 09:55:55;;;;;;;8.53;0.40;;;11.10;99.90;;;;;;5066261;28;20515;-67
2024/02/04 09:58:23;;;;;;;5.60;0.30;;;11.20;99.90;;;;;;5065976;28;20538;-68
2024/02/04 10:00:52;;;;;;;5.70;0.47;;;11.30;99.90;;;;;;5065380;28;20573;-68
2024/02/04 10:03:22;;;;;;;5.67;0.50;;;11.30;99.90;;;;;;5066154;28;20447;-66
2024/02/04 10:05:51;;;;;;;5.87;0.47;;;11.30;99.90;;;;;;5065141;28;20451;-70
2024/02/04 10:08:20;;;;;;;6.67;0.97;;;11.30;99.90;;;;;;5066067;28;20448;-67
2024/02/04 10:10:49;;;;;;;5.67;0.40;;;11.40;99.90;;;;;;5064609;28;20575;-67
2024/02/04 10:13:17;;;;;;;6.00;0.60;;;11.50;99.90;;;;;;5064325;28;20498;-68
2024/02/04 10:15:45;;;;;;;5.87;0.40;;;11.40;99.90;;;;;;5064301;28;21225;-67
2024/02/04 10:18:13;;;;;;;6.30;0.70;;;11.40;99.90;;;;;;5059109;28;20439;-67
2024/02/04 10:20:43;;;;;;;5.57;0.30;;;11.50;99.90;;;;;;5062888;28;20460;-68
2024/02/04 10:23:12;;;;;;;5.90;0.37;;;11.60;99.90;;;;;;5063790;28;20440;-68
2024/02/04 10:25:40;;;;;;;5.70;0.40;;;11.80;99.90;;;;;;5063770;28;20444;-68
2024/02/04 10:28:09;;;;;;;5.80;0.50;;;11.90;99.90;;;;;;5066999;28;20955;-70
2024/02/04 10:30:39;;;;;;;5.60;0.30;;;12.00;99.90;;;;;;5060423;28;20551;-71
2024/02/04 10:33:07;;;;;;;5.73;0.40;;;12.20;99.90;;;;;;5064615;28;20505;-70
2024/02/04 10:35:38;;;;;;;5.77;0.40;;;12.30;99.90;;;;;;5062375;28;20455;-69
2024/02/04 10:38:07;;;;;;;5.63;0.30;;;12.10;99.90;;;;;;5061931;28;20456;-67
2024/02/04 10:40:39;;;;;;;5.70;0.30;;;11.90;99.90;;;;;;5066625;28;21086;-69
2024/02/04 10:43:08;;;;;;;5.80;0.40;;;11.80;99.90;;;;;;5064781;28;20497;-68
2024/02/04 10:45:43;;;;;;;5.77;0.30;;;11.90;99.90;;;;;;5066949;28;20442;-66
2024/02/04 10:48:16;;;;;;;5.80;0.40;;;11.80;99.90;;;;;;5064238;28;20452;-68
2024/02/04 10:50:46;;;;;;;5.60;0.30;;;11.70;99.90;;;;;;5065084;28;20467;-67
2024/02/04 10:53:16;;;;;;;5.70;0.30;;;11.70;99.90;;;;;;5066349;28;20514;-68
2024/02/04 10:55:47;;;;;;;5.60;0.20;;;11.60;99.90;;;;;;5061433;28;20952;-68
2024/02/04 10:58:16;;;;;;;5.60;0.30;;;11.50;99.90;;;;;;5065166;28;20477;-68
2024/02/04 11:00:44;;;;;;;5.80;0.40;;;11.40;99.90;;;;;;5058935;28;20459;-69
2024/02/04 11:03:13;;;;;;;5.70;0.30;;;11.20;99.90;;;;;;5064839;28;20449;-69
2024/02/04 11:05:44;;;;;;;5.57;0.30;;;11.10;99.90;;;;;;5066212;28;20866;-69
2024/02/04 11:08:13;;;;;;;5.53;0.27;;;11.10;99.90;;;;;;5066178;28;20435;-68
2024/02/04 11:10:41;;;;;;;5.63;0.30;;;11.20;99.90;;;;;;5064787;28;20463;-67
2024/02/04 11:13:13;;;;;;;5.57;0.40;;;11.30;99.90;;;;;;5064173;28;21336;-69
2024/02/04 11:15:44;;;;;;;5.70;0.40;;;11.70;99.90;;;;;;5064300;28;20957;-73
2024/02/04 11:18:50;;;;;;;5.67;0.33;;;12.10;99.90;;;;;;5065339;28;20470;-68
2024/02/04 11:21:42;;;;;;;5.60;0.30;;;12.40;99.90;;;;;;5066357;28;20542;-68
2024/02/04 11:24:23;;;;;;;5.63;0.33;;;12.40;99.90;;;;;;5063886;28;20442;-69
2024/02/04 11:26:51;;;;;;;5.60;0.30;;;12.60;99.90;;;;;;5065563;28;20931;-69
2024/02/04 11:29:20;;;;;;;6.53;0.43;;;12.70;99.90;;;;;;5065731;28;20539;-67
2024/02/04 11:31:48;;;;;;;5.70;0.40;;;12.70;99.90;;;;;;5060149;28;20533;-69
2024/02/04 11:34:17;;;;;;;5.73;0.40;;;12.50;99.90;;;;;;5064249;28;20503;-69
2024/02/04 11:36:45;;;;;;;5.70;0.40;;;12.00;99.90;;;;;;5063308;28;20620;-68
2024/02/04 11:39:15;;;;;;;5.60;0.30;;;11.80;99.90;;;;;;5064087;28;20440;-68
2024/02/04 11:41:47;;;;;;;5.60;0.30;;;11.60;99.90;;;;;;5064827;28;20984;-68
2024/02/04 11:44:22;;;;;;;5.60;0.30;;;11.60;99.90;;;;;;5065036;28;20442;-68
2024/02/04 11:46:51;;;;;;;5.70;0.30;;;11.50;99.90;;;;;;5065498;28;20600;-68
2024/02/04 11:49:21;;;;;;;5.80;0.30;;;11.50;99.90;;;;;;5065835;28;20439;-69
2024/02/04 11:51:52;;;;;;;5.63;0.33;;;11.60;99.90;;;;;;5064238;28;20845;-68
2024/02/04 11:54:21;;;;;;;5.87;0.80;;;11.70;99.90;;;;;;5067187;28;20478;-68
2024/02/04 11:56:52;;;;;;;5.70;0.40;;;11.70;99.90;;;;;;5068053;28;20478;-69
2024/02/04 11:59:24;;;;;;;5.57;0.33;;;11.80;99.90;;;;;;5067534;28;20527;-68
2024/02/04 12:01:56;;;;;;;5.70;0.30;;;11.70;99.90;;;;;;5064271;28;20443;-67
2024/02/04 12:04:24;;;;;;;5.80;0.30;;;11.60;99.90;;;;;;5069008;28;20955;-68
2024/02/04 12:06:53;;;;;;;5.70;0.40;;;11.50;99.90;;;;;;5067299;28;20450;-67
2024/02/04 12:09:22;;;;;;;6.20;0.40;;;11.30;99.90;;;;;;5069701;28;21023;-67
2024/02/04 12:11:51;;;;;;;5.60;0.30;;;11.30;99.90;;;;;;5065401;28;20530;-67
2024/02/04 12:14:19;;;;;;;5.80;0.53;;;11.30;99.90;;;;;;5066891;28;20478;-67
2024/02/04 12:16:49;;;;;;;5.70;0.40;;;11.30;99.90;;;;;;5066939;28;20549;-67
2024/02/04 12:19:17;;;;;;;5.60;0.30;;;11.30;99.90;;;;;;5066405;28;20540;-68
2024/02/04 12:21:45;;;;;;;5.80;0.40;;;11.30;99.90;;;;;;5064513;28;20553;-67
2024/02/04 12:24:14;;;;;;;5.83;0.37;;;11.30;99.90;;;;;;5064520;28;20467;-70
2024/02/04 12:26:42;;;;;;;6.20;0.53;;;11.40;99.90;;;;;;5065667;28;20455;-68
2024/02/04 12:29:10;;;;;;;5.60;0.33;;;11.50;99.90;;;;;;5062978;28;20440;-73
2024/02/04 12:31:38;;;;;;;5.73;0.40;;;11.60;99.90;;;;;;5063470;28;20546;-70
2024/02/04 12:34:12;;;;;;;5.80;0.30;;;11.60;99.90;;;;;;5063535;28;20550;-69
2024/02/04 12:36:40;;;;;;;5.70;0.33;;;11.70;99.90;;;;;;5062749;28;20458;-70
2024/02/04 12:39:11;;;;;;;5.70;0.30;;;11.80;99.90;;;;;;5065387;28;20446;-69
2024/02/04 12:41:40;;;;;;;5.63;0.33;;;12.00;99.90;;;;;;5064475;28;20570;-70
2024/02/04 12:44:08;;;;;;;6.20;0.60;;;12.10;99.90;;;;;;5066204;28;20463;-68
2024/02/04 12:46:36;;;;;;;5.60;0.30;;;12.20;99.90;;;;;;5065890;28;20829;-66
2024/02/04 12:49:04;;;;;;;6.10;0.50;;;12.10;99.90;;;;;;5065735;28;20444;-68
2024/02/04 12:51:37;;;;;;;5.73;0.33;;;12.20;99.90;;;;;;5065352;28;20458;-68
2024/02/04 12:54:06;;;;;;;5.67;0.30;;;12.20;99.90;;;;;;5062806;28;20483;-68
2024/02/04 12:56:42;;;;;;;5.57;0.30;;;12.20;99.90;;;;;;5063648;28;20442;-67
2024/02/04 12:59:10;;;;;;;5.63;0.40;;;12.30;99.90;;;;;;5065540;28;20477;-68
2024/02/04 13:01:40;;;;;;;5.90;0.43;;;12.40;99.90;;;;;;5064289;28;20456;-68
2024/02/04 13:04:12;;;;;;;5.70;0.40;;;12.50;99.90;;;;;;5062637;28;20440;-68